sensor_id;sensor_type;location;lat;lon;timestamp;temperature;humidity
8248;DHT22;4164;49.844;8.830;2022-08-02T00:02:18;20.10;99.90
8248;DHT22;4164;49.844;8.830;2022-08-02T00:04:44;20.10;99.90
8248;DHT22;4164;49.844;8.830;2022-08-02T00:07:10;20.10;99.90
8248;DHT22;4164;49.844;8.830;2022-08-02T00:09:35;20.10;99.90
8248;DHT22;4164;49.844;8.830;2022-08-02T00:12:01;20.20;99.90
8248;DHT22;4164;49.844;8.830;2022-08-02T00:14:26;20.10;99.90
8248;DHT22;4164;49.844;8.830;2022-08-02T00:16:52;20.10;99.90
8248;DHT22;4164;49.844;8.830;2022-08-02T00:19:17;20.00;99.90
8248;DHT22;4164;49.844;8.830;2022-08-02T00:21:43;20.00;99.90
8248;DHT22;4164;49.844;8.830;2022-08-02T00:24:08;20.00;99.90
8248;DHT22;4164;49.844;8.830;2022-08-02T00:26:34;20.00;99.90
8248;DHT22;4164;49.844;8.830;2022-08-02T00:28:59;20.10;99.90
8248;DHT22;4164;49.844;8.830;2022-08-02T00:31:25;20.10;99.90
8248;DHT22;4164;49.844;8.830;2022-08-02T00:33:50;20.00;99.90
8248;DHT22;4164;49.844;8.830;2022-08-02T00:36:16;20.00;99.90
8248;DHT22;4164;49.844;8.830;2022-08-02T00:38:42;19.90;99.90
8248;DHT22;4164;49.844;8.830;2022-08-02T00:41:18;19.80;99.90
8248;DHT22;4164;49.844;8.830;2022-08-02T00:43:45;19.80;99.90
8248;DHT22;4164;49.844;8.830;2022-08-02T00:46:12;19.60;99.90
8248;DHT22;4164;49.844;8.830;2022-08-02T00:48:38;19.40;99.90
8248;DHT22;4164;49.844;8.830;2022-08-02T00:51:04;19.40;99.90
8248;DHT22;4164;49.844;8.830;2022-08-02T00:53:29;19.40;99.90
8248;DHT22;4164;49.844;8.830;2022-08-02T00:55:55;19.40;99.90
8248;DHT22;4164;49.844;8.830;2022-08-02T00:58:21;19.40;99.90
8248;DHT22;4164;49.844;8.830;2022-08-02T01:00:46;19.30;99.90
8248;DHT22;4164;49.844;8.830;2022-08-02T01:03:12;19.20;99.90
8248;DHT22;4164;49.844;8.830;2022-08-02T01:05:37;19.30;99.90
8248;DHT22;4164;49.844;8.830;2022-08-02T01:08:03;19.20;99.90
8248;DHT22;4164;49.844;8.830;2022-08-02T01:10:29;19.20;99.90
8248;DHT22;4164;49.844;8.830;2022-08-02T01:12:54;19.20;99.90
8248;DHT22;4164;49.844;8.830;2022-08-02T01:15:20;19.20;99.90
8248;DHT22;4164;49.844;8.830;2022-08-02T01:17:51;19.20;99.90
8248;DHT22;4164;49.844;8.830;2022-08-02T01:31:46;18.70;99.90
8248;DHT22;4164;49.844;8.830;2022-08-02T01:37:06;18.70;99.90
8248;DHT22;4164;49.844;8.830;2022-08-02T01:39:35;18.70;99.90
8248;DHT22;4164;49.844;8.830;2022-08-02T01:42:03;18.90;99.90
8248;DHT22;4164;49.844;8.830;2022-08-02T01:44:33;19.00;99.90
8248;DHT22;4164;49.844;8.830;2022-08-02T01:47:02;18.90;99.90
8248;DHT22;4164;49.844;8.830;2022-08-02T01:49:30;19.00;99.90
8248;DHT22;4164;49.844;8.830;2022-08-02T01:51:59;18.90;99.90
8248;DHT22;4164;49.844;8.830;2022-08-02T01:54:44;19.10;99.90
8248;DHT22;4164;49.844;8.830;2022-08-02T01:57:12;19.20;99.90
8248;DHT22;4164;49.844;8.830;2022-08-02T01:59:41;19.20;99.90
8248;DHT22;4164;49.844;8.830;2022-08-02T02:02:08;19.10;99.90
8248;DHT22;4164;49.844;8.830;2022-08-02T02:04:35;19.10;99.90
8248;DHT22;4164;49.844;8.830;2022-08-02T02:07:02;19.00;99.90
8248;DHT22;4164;49.844;8.830;2022-08-02T02:09:29;19.00;99.90
8248;DHT22;4164;49.844;8.830;2022-08-02T02:11:58;18.90;99.90
8248;DHT22;4164;49.844;8.830;2022-08-02T02:14:26;18.90;99.90
8248;DHT22;4164;49.844;8.830;2022-08-02T02:16:53;18.80;99.90
8248;DHT22;4164;49.844;8.830;2022-08-02T02:19:19;18.90;99.90
8248;DHT22;4164;49.844;8.830;2022-08-02T02:21:46;18.90;99.90
8248;DHT22;4164;49.844;8.830;2022-08-02T02:24:12;18.80;99.90
8248;DHT22;4164;49.844;8.830;2022-08-02T02:26:38;18.80;99.90
8248;DHT22;4164;49.844;8.830;2022-08-02T02:29:06;18.70;99.90
8248;DHT22;4164;49.844;8.830;2022-08-02T02:31:38;18.70;99.90
8248;DHT22;4164;49.844;8.830;2022-08-02T02:34:08;18.70;99.90
8248;DHT22;4164;49.844;8.830;2022-08-02T02:36:40;18.70;99.90
8248;DHT22;4164;49.844;8.830;2022-08-02T02:39:08;18.60;99.90
8248;DHT22;4164;49.844;8.830;2022-08-02T02:41:37;18.60;99.90
8248;DHT22;4164;49.844;8.830;2022-08-02T02:44:05;18.60;99.90
8248;DHT22;4164;49.844;8.830;2022-08-02T02:46:34;18.50;99.90
8248;DHT22;4164;49.844;8.830;2022-08-02T02:49:00;18.40;99.90
8248;DHT22;4164;49.844;8.830;2022-08-02T02:51:27;18.40;99.90
8248;DHT22;4164;49.844;8.830;2022-08-02T02:53:53;18.30;99.90
8248;DHT22;4164;49.844;8.830;2022-08-02T02:56:20;18.30;99.90
8248;DHT22;4164;49.844;8.830;2022-08-02T02:58:47;18.30;99.90
8248;DHT22;4164;49.844;8.830;2022-08-02T03:01:13;18.30;99.90
8248;DHT22;4164;49.844;8.830;2022-08-02T03:04:03;18.30;99.90
8248;DHT22;4164;49.844;8.830;2022-08-02T03:06:29;18.10;99.90
8248;DHT22;4164;49.844;8.830;2022-08-02T03:08:55;18.00;99.90
8248;DHT22;4164;49.844;8.830;2022-08-02T03:11:23;18.00;99.90
8248;DHT22;4164;49.844;8.830;2022-08-02T03:13:49;17.90;99.90
8248;DHT22;4164;49.844;8.830;2022-08-02T03:16:16;17.90;99.90
8248;DHT22;4164;49.844;8.830;2022-08-02T03:18:43;18.10;99.90
8248;DHT22;4164;49.844;8.830;2022-08-02T03:21:10;18.00;99.90
8248;DHT22;4164;49.844;8.830;2022-08-02T03:23:37;18.00;99.90
8248;DHT22;4164;49.844;8.830;2022-08-02T03:26:03;18.00;99.90
8248;DHT22;4164;49.844;8.830;2022-08-02T03:28:29;18.00;99.90
8248;DHT22;4164;49.844;8.830;2022-08-02T03:30:55;18.00;99.90
8248;DHT22;4164;49.844;8.830;2022-08-02T03:33:22;17.90;99.90
8248;DHT22;4164;49.844;8.830;2022-08-02T03:35:52;17.90;99.90
8248;DHT22;4164;49.844;8.830;2022-08-02T03:38:19;17.90;99.90
8248;DHT22;4164;49.844;8.830;2022-08-02T03:40:46;17.90;99.90
8248;DHT22;4164;49.844;8.830;2022-08-02T03:43:11;17.90;99.90
8248;DHT22;4164;49.844;8.830;2022-08-02T03:45:39;17.80;99.90
8248;DHT22;4164;49.844;8.830;2022-08-02T03:48:06;17.80;99.90
8248;DHT22;4164;49.844;8.830;2022-08-02T03:50:33;17.70;99.90
8248;DHT22;4164;49.844;8.830;2022-08-02T03:53:00;17.70;99.90
8248;DHT22;4164;49.844;8.830;2022-08-02T03:55:26;17.60;99.90
8248;DHT22;4164;49.844;8.830;2022-08-02T03:57:52;17.70;99.90
8248;DHT22;4164;49.844;8.830;2022-08-02T04:00:20;17.60;99.90
8248;DHT22;4164;49.844;8.830;2022-08-02T04:02:46;17.60;99.90
8248;DHT22;4164;49.844;8.830;2022-08-02T04:05:13;17.60;99.90
8248;DHT22;4164;49.844;8.830;2022-08-02T04:07:38;17.60;99.90
8248;DHT22;4164;49.844;8.830;2022-08-02T04:10:04;17.60;99.90
8248;DHT22;4164;49.844;8.830;2022-08-02T04:12:30;17.60;99.90
8248;DHT22;4164;49.844;8.830;2022-08-02T04:14:57;17.60;99.90
8248;DHT22;4164;49.844;8.830;2022-08-02T04:17:24;17.60;99.90
8248;DHT22;4164;49.844;8.830;2022-08-02T04:20:05;17.60;99.90
8248;DHT22;4164;49.844;8.830;2022-08-02T04:22:39;17.60;99.90
8248;DHT22;4164;49.844;8.830;2022-08-02T04:25:09;17.60;99.90
8248;DHT22;4164;49.844;8.830;2022-08-02T04:27:36;17.60;99.90
8248;DHT22;4164;49.844;8.830;2022-08-02T04:30:03;17.60;99.90
8248;DHT22;4164;49.844;8.830;2022-08-02T04:32:31;17.60;99.90
8248;DHT22;4164;49.844;8.830;2022-08-02T04:34:57;17.60;99.90
8248;DHT22;4164;49.844;8.830;2022-08-02T04:37:23;17.60;99.90
8248;DHT22;4164;49.844;8.830;2022-08-02T04:39:49;17.50;99.90
8248;DHT22;4164;49.844;8.830;2022-08-02T04:42:25;17.60;99.90
8248;DHT22;4164;49.844;8.830;2022-08-02T04:44:51;17.50;99.90
8248;DHT22;4164;49.844;8.830;2022-08-02T04:47:20;17.50;99.90
8248;DHT22;4164;49.844;8.830;2022-08-02T04:49:46;17.30;99.90
8248;DHT22;4164;49.844;8.830;2022-08-02T04:52:12;17.30;99.90
8248;DHT22;4164;49.844;8.830;2022-08-02T04:54:38;17.40;99.90
8248;DHT22;4164;49.844;8.830;2022-08-02T04:57:04;17.40;99.90
8248;DHT22;4164;49.844;8.830;2022-08-02T04:59:49;17.50;99.90
8248;DHT22;4164;49.844;8.830;2022-08-02T05:02:15;17.60;99.90
8248;DHT22;4164;49.844;8.830;2022-08-02T05:04:40;17.60;99.90
8248;DHT22;4164;49.844;8.830;2022-08-02T05:07:06;17.50;99.90
8248;DHT22;4164;49.844;8.830;2022-08-02T05:09:31;17.60;99.90
8248;DHT22;4164;49.844;8.830;2022-08-02T05:11:57;17.50;99.90
8248;DHT22;4164;49.844;8.830;2022-08-02T05:14:23;17.50;99.90
8248;DHT22;4164;49.844;8.830;2022-08-02T05:16:48;17.60;99.90
8248;DHT22;4164;49.844;8.830;2022-08-02T05:19:14;17.80;99.90
8248;DHT22;4164;49.844;8.830;2022-08-02T05:21:39;18.00;99.90
8248;DHT22;4164;49.844;8.830;2022-08-02T05:24:05;18.00;99.90
8248;DHT22;4164;49.844;8.830;2022-08-02T05:26:31;18.20;99.90
8248;DHT22;4164;49.844;8.830;2022-08-02T05:28:56;18.30;99.90
8248;DHT22;4164;49.844;8.830;2022-08-02T05:31:22;18.40;99.90
8248;DHT22;4164;49.844;8.830;2022-08-02T05:33:47;18.70;99.90
8248;DHT22;4164;49.844;8.830;2022-08-02T05:36:13;18.70;99.90
8248;DHT22;4164;49.844;8.830;2022-08-02T05:38:38;18.70;99.90
8248;DHT22;4164;49.844;8.830;2022-08-02T05:41:05;18.70;99.90
8248;DHT22;4164;49.844;8.830;2022-08-02T05:43:30;18.70;99.90
8248;DHT22;4164;49.844;8.830;2022-08-02T05:45:56;18.70;99.90
8248;DHT22;4164;49.844;8.830;2022-08-02T05:48:21;18.80;99.90
8248;DHT22;4164;49.844;8.830;2022-08-02T05:50:49;18.90;99.90
8248;DHT22;4164;49.844;8.830;2022-08-02T05:56:01;19.10;99.90
8248;DHT22;4164;49.844;8.830;2022-08-02T05:58:37;19.40;99.90
8248;DHT22;4164;49.844;8.830;2022-08-02T06:01:04;19.60;99.90
8248;DHT22;4164;49.844;8.830;2022-08-02T06:03:38;19.80;99.90
8248;DHT22;4164;49.844;8.830;2022-08-02T06:06:13;19.90;99.90
8248;DHT22;4164;49.844;8.830;2022-08-02T06:08:47;20.00;99.90
8248;DHT22;4164;49.844;8.830;2022-08-02T06:11:17;20.00;99.90
8248;DHT22;4164;49.844;8.830;2022-08-02T06:13:45;20.20;99.90
8248;DHT22;4164;49.844;8.830;2022-08-02T06:16:11;20.50;99.90
8248;DHT22;4164;49.844;8.830;2022-08-02T06:18:41;20.70;99.90
8248;DHT22;4164;49.844;8.830;2022-08-02T06:21:06;20.70;99.90
8248;DHT22;4164;49.844;8.830;2022-08-02T06:23:42;21.00;99.90
8248;DHT22;4164;49.844;8.830;2022-08-02T06:26:12;21.10;99.90
8248;DHT22;4164;49.844;8.830;2022-08-02T06:28:39;21.40;99.90
8248;DHT22;4164;49.844;8.830;2022-08-02T06:31:05;21.50;99.90
8248;DHT22;4164;49.844;8.830;2022-08-02T06:33:31;21.70;99.90
8248;DHT22;4164;49.844;8.830;2022-08-02T06:39:01;22.20;99.90
8248;DHT22;4164;49.844;8.830;2022-08-02T06:41:31;22.30;99.90
8248;DHT22;4164;49.844;8.830;2022-08-02T06:44:02;22.30;99.90
8248;DHT22;4164;49.844;8.830;2022-08-02T06:46:29;22.40;99.90
8248;DHT22;4164;49.844;8.830;2022-08-02T06:48:55;22.20;99.90
8248;DHT22;4164;49.844;8.830;2022-08-02T06:51:21;22.20;99.90
8248;DHT22;4164;49.844;8.830;2022-08-02T06:53:47;22.20;99.90
8248;DHT22;4164;49.844;8.830;2022-08-02T06:56:13;22.30;99.90
8248;DHT22;4164;49.844;8.830;2022-08-02T06:58:39;22.40;99.90
8248;DHT22;4164;49.844;8.830;2022-08-02T07:01:05;22.20;99.90
8248;DHT22;4164;49.844;8.830;2022-08-02T07:03:35;22.20;99.90
8248;DHT22;4164;49.844;8.830;2022-08-02T07:06:02;22.40;99.90
8248;DHT22;4164;49.844;8.830;2022-08-02T07:08:28;22.30;99.90
8248;DHT22;4164;49.844;8.830;2022-08-02T07:10:59;22.20;99.90
8248;DHT22;4164;49.844;8.830;2022-08-02T07:13:26;22.30;99.90
8248;DHT22;4164;49.844;8.830;2022-08-02T07:15:52;22.50;99.90
8248;DHT22;4164;49.844;8.830;2022-08-02T07:18:18;22.70;99.90
8248;DHT22;4164;49.844;8.830;2022-08-02T07:20:46;22.90;99.90
8248;DHT22;4164;49.844;8.830;2022-08-02T07:23:12;23.10;99.90
8248;DHT22;4164;49.844;8.830;2022-08-02T07:25:38;23.30;99.90
8248;DHT22;4164;49.844;8.830;2022-08-02T07:28:04;23.40;99.90
8248;DHT22;4164;49.844;8.830;2022-08-02T07:30:30;23.30;99.90
8248;DHT22;4164;49.844;8.830;2022-08-02T07:33:00;23.10;99.90
8248;DHT22;4164;49.844;8.830;2022-08-02T07:35:26;23.40;99.90
8248;DHT22;4164;49.844;8.830;2022-08-02T07:37:52;23.60;99.90
8248;DHT22;4164;49.844;8.830;2022-08-02T07:40:18;23.80;99.90
8248;DHT22;4164;49.844;8.830;2022-08-02T07:42:45;24.10;99.90
8248;DHT22;4164;49.844;8.830;2022-08-02T07:45:12;24.00;99.90
8248;DHT22;4164;49.844;8.830;2022-08-02T07:47:38;24.10;99.90
8248;DHT22;4164;49.844;8.830;2022-08-02T07:50:06;24.20;99.90
8248;DHT22;4164;49.844;8.830;2022-08-02T07:52:31;24.30;99.90
8248;DHT22;4164;49.844;8.830;2022-08-02T07:54:57;24.30;99.90
8248;DHT22;4164;49.844;8.830;2022-08-02T07:57:22;24.00;99.90
8248;DHT22;4164;49.844;8.830;2022-08-02T07:59:49;23.70;99.90
8248;DHT22;4164;49.844;8.830;2022-08-02T08:02:16;23.80;99.90
8248;DHT22;4164;49.844;8.830;2022-08-02T08:04:41;24.00;99.90
8248;DHT22;4164;49.844;8.830;2022-08-02T08:07:07;24.10;99.90
8248;DHT22;4164;49.844;8.830;2022-08-02T08:09:35;24.30;99.90
8248;DHT22;4164;49.844;8.830;2022-08-02T08:12:06;24.50;99.90
8248;DHT22;4164;49.844;8.830;2022-08-02T08:14:32;24.70;99.90
8248;DHT22;4164;49.844;8.830;2022-08-02T08:16:58;24.80;99.90
8248;DHT22;4164;49.844;8.830;2022-08-02T08:19:23;25.10;99.90
8248;DHT22;4164;49.844;8.830;2022-08-02T08:21:49;24.80;99.90
8248;DHT22;4164;49.844;8.830;2022-08-02T08:24:14;24.80;99.90
8248;DHT22;4164;49.844;8.830;2022-08-02T08:26:40;25.10;99.90
8248;DHT22;4164;49.844;8.830;2022-08-02T08:29:05;25.30;99.90
8248;DHT22;4164;49.844;8.830;2022-08-02T08:31:34;25.10;99.90
8248;DHT22;4164;49.844;8.830;2022-08-02T08:34:01;25.20;99.90
8248;DHT22;4164;49.844;8.830;2022-08-02T08:36:26;25.50;99.90
8248;DHT22;4164;49.844;8.830;2022-08-02T08:38:53;25.70;99.90
8248;DHT22;4164;49.844;8.830;2022-08-02T08:41:19;25.50;99.90
8248;DHT22;4164;49.844;8.830;2022-08-02T08:43:46;25.30;99.90
8248;DHT22;4164;49.844;8.830;2022-08-02T08:46:32;25.20;99.90
8248;DHT22;4164;49.844;8.830;2022-08-02T08:49:05;25.70;99.90
8248;DHT22;4164;49.844;8.830;2022-08-02T08:51:36;25.30;99.90
8248;DHT22;4164;49.844;8.830;2022-08-02T08:54:03;25.50;99.90
8248;DHT22;4164;49.844;8.830;2022-08-02T08:56:32;25.90;99.90
8248;DHT22;4164;49.844;8.830;2022-08-02T08:59:00;26.10;99.90
8248;DHT22;4164;49.844;8.830;2022-08-02T09:01:25;26.20;99.90
8248;DHT22;4164;49.844;8.830;2022-08-02T09:03:51;26.10;99.90
8248;DHT22;4164;49.844;8.830;2022-08-02T09:06:17;26.30;99.90
8248;DHT22;4164;49.844;8.830;2022-08-02T09:08:43;26.50;99.90
8248;DHT22;4164;49.844;8.830;2022-08-02T09:11:13;26.20;99.90
8248;DHT22;4164;49.844;8.830;2022-08-02T09:13:57;26.10;99.20
8248;DHT22;4164;49.844;8.830;2022-08-02T09:16:42;25.70;99.90
8248;DHT22;4164;49.844;8.830;2022-08-02T09:19:19;25.40;99.90
8248;DHT22;4164;49.844;8.830;2022-08-02T09:21:45;25.30;99.90
8248;DHT22;4164;49.844;8.830;2022-08-02T09:24:22;25.30;99.90
8248;DHT22;4164;49.844;8.830;2022-08-02T09:26:49;25.70;99.90
8248;DHT22;4164;49.844;8.830;2022-08-02T09:29:16;26.00;99.90
8248;DHT22;4164;49.844;8.830;2022-08-02T09:31:43;26.10;99.10
8248;DHT22;4164;49.844;8.830;2022-08-02T09:34:10;26.20;98.80
8248;DHT22;4164;49.844;8.830;2022-08-02T09:36:46;26.30;99.90
8248;DHT22;4164;49.844;8.830;2022-08-02T09:39:14;26.80;97.10
8248;DHT22;4164;49.844;8.830;2022-08-02T09:41:41;26.20;95.00
8248;DHT22;4164;49.844;8.830;2022-08-02T09:44:09;25.80;95.50
8248;DHT22;4164;49.844;8.830;2022-08-02T09:46:39;25.80;96.00
8248;DHT22;4164;49.844;8.830;2022-08-02T09:49:16;26.00;96.90
8248;DHT22;4164;49.844;8.830;2022-08-02T09:54:16;26.00;96.10
8248;DHT22;4164;49.844;8.830;2022-08-02T09:56:50;26.60;96.60
8248;DHT22;4164;49.844;8.830;2022-08-02T09:59:18;27.30;93.60
8248;DHT22;4164;49.844;8.830;2022-08-02T10:01:46;27.50;93.00
8248;DHT22;4164;49.844;8.830;2022-08-02T10:04:13;27.80;92.30
8248;DHT22;4164;49.844;8.830;2022-08-02T10:06:43;27.50;91.80
8248;DHT22;4164;49.844;8.830;2022-08-02T10:09:10;27.90;92.50
8248;DHT22;4164;49.844;8.830;2022-08-02T10:11:36;28.10;93.30
8248;DHT22;4164;49.844;8.830;2022-08-02T10:14:03;28.60;92.90
8248;DHT22;4164;49.844;8.830;2022-08-02T10:16:30;28.90;92.10
8248;DHT22;4164;49.844;8.830;2022-08-02T10:18:56;29.00;90.70
8248;DHT22;4164;49.844;8.830;2022-08-02T10:21:32;29.10;90.20
8248;DHT22;4164;49.844;8.830;2022-08-02T10:24:07;29.10;90.60
8248;DHT22;4164;49.844;8.830;2022-08-02T10:26:34;29.10;88.50
8248;DHT22;4164;49.844;8.830;2022-08-02T10:29:00;28.50;84.20
8248;DHT22;4164;49.844;8.830;2022-08-02T10:31:32;28.40;83.10
8248;DHT22;4164;49.844;8.830;2022-08-02T10:34:01;28.40;84.80
8248;DHT22;4164;49.844;8.830;2022-08-02T10:36:30;28.70;83.10
8248;DHT22;4164;49.844;8.830;2022-08-02T10:38:57;29.10;86.50
8248;DHT22;4164;49.844;8.830;2022-08-02T10:44:05;29.90;77.50
8248;DHT22;4164;49.844;8.830;2022-08-02T10:46:32;30.10;80.80
8248;DHT22;4164;49.844;8.830;2022-08-02T10:49:12;30.10;77.50
8248;DHT22;4164;49.844;8.830;2022-08-02T10:52:08;30.30;76.00
8248;DHT22;4164;49.844;8.830;2022-08-02T10:55:09;30.30;76.30
8248;DHT22;4164;49.844;8.830;2022-08-02T10:57:35;30.50;77.00
8248;DHT22;4164;49.844;8.830;2022-08-02T11:00:09;30.10;72.50
8248;DHT22;4164;49.844;8.830;2022-08-02T11:02:39;29.60;76.10
8248;DHT22;4164;49.844;8.830;2022-08-02T11:05:07;30.20;78.60
8248;DHT22;4164;49.844;8.830;2022-08-02T11:07:43;30.50;76.90
8248;DHT22;4164;49.844;8.830;2022-08-02T11:13:11;30.90;75.20
8248;DHT22;4164;49.844;8.830;2022-08-02T11:15:51;31.30;71.50
8248;DHT22;4164;49.844;8.830;2022-08-02T11:18:18;31.00;64.50
8248;DHT22;4164;49.844;8.830;2022-08-02T11:20:44;29.60;65.80
8248;DHT22;4164;49.844;8.830;2022-08-02T11:23:38;29.50;68.90
8248;DHT22;4164;49.844;8.830;2022-08-02T11:28:59;31.00;66.60
8248;DHT22;4164;49.844;8.830;2022-08-02T11:31:27;30.70;64.00
8248;DHT22;4164;49.844;8.830;2022-08-02T11:33:53;31.90;63.40
8248;DHT22;4164;49.844;8.830;2022-08-02T11:36:19;33.80;57.20
8248;DHT22;4164;49.844;8.830;2022-08-02T11:38:45;33.90;55.30
8248;DHT22;4164;49.844;8.830;2022-08-02T11:41:21;35.70;53.40
8248;DHT22;4164;49.844;8.830;2022-08-02T11:43:53;37.40;47.80
8248;DHT22;4164;49.844;8.830;2022-08-02T11:46:19;37.20;48.50
8248;DHT22;4164;49.844;8.830;2022-08-02T11:48:45;39.20;44.90
8248;DHT22;4164;49.844;8.830;2022-08-02T11:51:15;39.80;43.10
8248;DHT22;4164;49.844;8.830;2022-08-02T11:53:51;40.90;41.40
8248;DHT22;4164;49.844;8.830;2022-08-02T11:56:24;40.20;39.60
8248;DHT22;4164;49.844;8.830;2022-08-02T11:59:10;39.60;40.20
8248;DHT22;4164;49.844;8.830;2022-08-02T12:01:37;40.70;38.90
8248;DHT22;4164;49.844;8.830;2022-08-02T12:04:04;40.80;37.80
8248;DHT22;4164;49.844;8.830;2022-08-02T12:06:31;40.20;36.40
8248;DHT22;4164;49.844;8.830;2022-08-02T12:09:08;39.80;37.70
8248;DHT22;4164;49.844;8.830;2022-08-02T12:11:34;40.40;38.00
8248;DHT22;4164;49.844;8.830;2022-08-02T12:14:01;41.80;36.60
8248;DHT22;4164;49.844;8.830;2022-08-02T12:16:38;42.20;36.40
8248;DHT22;4164;49.844;8.830;2022-08-02T12:19:23;41.00;34.50
8248;DHT22;4164;49.844;8.830;2022-08-02T12:22:12;38.00;36.50
8248;DHT22;4164;49.844;8.830;2022-08-02T12:24:40;37.00;38.50
8248;DHT22;4164;49.844;8.830;2022-08-02T12:27:06;34.70;40.10
8248;DHT22;4164;49.844;8.830;2022-08-02T12:29:37;32.80;43.00
8248;DHT22;4164;49.844;8.830;2022-08-02T12:32:04;34.20;43.80
8248;DHT22;4164;49.844;8.830;2022-08-02T12:34:31;35.10;41.20
8248;DHT22;4164;49.844;8.830;2022-08-02T12:37:08;35.00;42.70
8248;DHT22;4164;49.844;8.830;2022-08-02T12:39:45;34.20;41.80
8248;DHT22;4164;49.844;8.830;2022-08-02T12:42:14;35.00;41.70
8248;DHT22;4164;49.844;8.830;2022-08-02T12:44:57;36.10;40.40
8248;DHT22;4164;49.844;8.830;2022-08-02T12:47:23;35.20;40.40
8248;DHT22;4164;49.844;8.830;2022-08-02T12:50:21;34.10;42.70
8248;DHT22;4164;49.844;8.830;2022-08-02T12:52:48;35.40;40.80
8248;DHT22;4164;49.844;8.830;2022-08-02T12:57:55;38.90;39.30
8248;DHT22;4164;49.844;8.830;2022-08-02T13:00:27;40.90;36.70
8248;DHT22;4164;49.844;8.830;2022-08-02T13:02:53;40.40;35.90
8248;DHT22;4164;49.844;8.830;2022-08-02T13:05:19;39.00;37.20
8248;DHT22;4164;49.844;8.830;2022-08-02T13:07:44;36.90;37.20
8248;DHT22;4164;49.844;8.830;2022-08-02T13:10:10;35.20;39.70
8248;DHT22;4164;49.844;8.830;2022-08-02T13:12:36;36.40;39.60
8248;DHT22;4164;49.844;8.830;2022-08-02T13:15:07;37.80;38.30
8248;DHT22;4164;49.844;8.830;2022-08-02T13:17:33;38.40;38.70
8248;DHT22;4164;49.844;8.830;2022-08-02T13:19:58;37.90;37.20
8248;DHT22;4164;49.844;8.830;2022-08-02T13:22:24;36.30;38.50
8248;DHT22;4164;49.844;8.830;2022-08-02T13:24:50;36.10;39.10
8248;DHT22;4164;49.844;8.830;2022-08-02T13:27:16;36.20;38.10
8248;DHT22;4164;49.844;8.830;2022-08-02T13:29:42;36.30;38.50
8248;DHT22;4164;49.844;8.830;2022-08-02T13:32:08;35.50;38.80
8248;DHT22;4164;49.844;8.830;2022-08-02T13:34:34;36.80;38.80
8248;DHT22;4164;49.844;8.830;2022-08-02T13:37:00;35.30;38.80
8248;DHT22;4164;49.844;8.830;2022-08-02T13:39:25;34.20;40.20
8248;DHT22;4164;49.844;8.830;2022-08-02T13:41:51;35.40;40.60
8248;DHT22;4164;49.844;8.830;2022-08-02T13:44:17;36.60;38.80
8248;DHT22;4164;49.844;8.830;2022-08-02T13:46:42;38.30;37.60
8248;DHT22;4164;49.844;8.830;2022-08-02T13:49:11;39.70;35.50
8248;DHT22;4164;49.844;8.830;2022-08-02T13:51:37;41.10;36.90
8248;DHT22;4164;49.844;8.830;2022-08-02T13:54:02;37.90;35.80
8248;DHT22;4164;49.844;8.830;2022-08-02T13:56:28;35.30;38.00
8248;DHT22;4164;49.844;8.830;2022-08-02T13:58:53;35.10;38.70
8248;DHT22;4164;49.844;8.830;2022-08-02T14:01:19;36.30;38.10
8248;DHT22;4164;49.844;8.830;2022-08-02T14:03:44;37.20;37.20
8248;DHT22;4164;49.844;8.830;2022-08-02T14:06:10;38.50;36.70
8248;DHT22;4164;49.844;8.830;2022-08-02T14:08:35;37.80;36.10
8248;DHT22;4164;49.844;8.830;2022-08-02T14:11:02;37.10;36.60
8248;DHT22;4164;49.844;8.830;2022-08-02T14:13:28;36.30;36.90
8248;DHT22;4164;49.844;8.830;2022-08-02T14:15:54;35.00;37.90
8248;DHT22;4164;49.844;8.830;2022-08-02T14:18:21;34.90;38.00
8248;DHT22;4164;49.844;8.830;2022-08-02T14:20:47;35.50;38.50
8248;DHT22;4164;49.844;8.830;2022-08-02T14:23:12;35.60;38.00
8248;DHT22;4164;49.844;8.830;2022-08-02T14:25:38;36.30;37.80
8248;DHT22;4164;49.844;8.830;2022-08-02T14:28:04;36.30;37.60
8248;DHT22;4164;49.844;8.830;2022-08-02T14:30:30;36.60;37.80
8248;DHT22;4164;49.844;8.830;2022-08-02T14:32:56;36.50;37.70
8248;DHT22;4164;49.844;8.830;2022-08-02T14:35:21;37.00;37.00
8248;DHT22;4164;49.844;8.830;2022-08-02T14:37:47;36.40;36.40
8248;DHT22;4164;49.844;8.830;2022-08-02T14:40:12;36.10;36.90
8248;DHT22;4164;49.844;8.830;2022-08-02T14:42:39;35.80;38.00
8248;DHT22;4164;49.844;8.830;2022-08-02T14:45:05;35.60;36.80
8248;DHT22;4164;49.844;8.830;2022-08-02T14:47:30;35.40;37.00
8248;DHT22;4164;49.844;8.830;2022-08-02T14:49:56;34.00;38.30
8248;DHT22;4164;49.844;8.830;2022-08-02T14:52:21;33.30;39.00
8248;DHT22;4164;49.844;8.830;2022-08-02T14:54:47;33.10;39.40
8248;DHT22;4164;49.844;8.830;2022-08-02T14:57:13;33.20;39.40
8248;DHT22;4164;49.844;8.830;2022-08-02T14:59:39;33.50;38.90
8248;DHT22;4164;49.844;8.830;2022-08-02T15:02:04;33.50;39.10
8248;DHT22;4164;49.844;8.830;2022-08-02T15:04:33;32.90;39.80
8248;DHT22;4164;49.844;8.830;2022-08-02T15:06:59;32.70;40.10
8248;DHT22;4164;49.844;8.830;2022-08-02T15:09:25;32.80;40.50
8248;DHT22;4164;49.844;8.830;2022-08-02T15:11:51;31.80;40.30
8248;DHT22;4164;49.844;8.830;2022-08-02T15:14:19;31.20;41.80
8248;DHT22;4164;49.844;8.830;2022-08-02T15:16:44;31.20;41.80
8248;DHT22;4164;49.844;8.830;2022-08-02T15:19:10;31.10;41.90
8248;DHT22;4164;49.844;8.830;2022-08-02T15:21:35;31.10;42.40
8248;DHT22;4164;49.844;8.830;2022-08-02T15:24:01;30.80;42.30
8248;DHT22;4164;49.844;8.830;2022-08-02T15:26:27;30.80;42.50
8248;DHT22;4164;49.844;8.830;2022-08-02T15:28:52;30.90;42.50
8248;DHT22;4164;49.844;8.830;2022-08-02T15:31:18;31.00;42.50
8248;DHT22;4164;49.844;8.830;2022-08-02T15:33:44;31.00;41.90
8248;DHT22;4164;49.844;8.830;2022-08-02T15:36:10;31.00;42.10
8248;DHT22;4164;49.844;8.830;2022-08-02T15:38:35;31.00;42.30
8248;DHT22;4164;49.844;8.830;2022-08-02T15:41:01;31.20;42.10
8248;DHT22;4164;49.844;8.830;2022-08-02T15:43:27;31.20;42.30
8248;DHT22;4164;49.844;8.830;2022-08-02T15:45:53;31.30;42.60
8248;DHT22;4164;49.844;8.830;2022-08-02T15:48:18;31.10;41.50
8248;DHT22;4164;49.844;8.830;2022-08-02T15:50:44;30.50;41.50
8248;DHT22;4164;49.844;8.830;2022-08-02T15:53:10;30.20;41.90
8248;DHT22;4164;49.844;8.830;2022-08-02T15:55:35;29.90;42.10
8248;DHT22;4164;49.844;8.830;2022-08-02T15:58:03;30.10;42.90
8248;DHT22;4164;49.844;8.830;2022-08-02T16:00:29;30.30;42.10
8248;DHT22;4164;49.844;8.830;2022-08-02T16:02:55;30.50;41.90
8248;DHT22;4164;49.844;8.830;2022-08-02T16:05:21;30.70;42.10
8248;DHT22;4164;49.844;8.830;2022-08-02T16:07:46;30.50;41.90
8248;DHT22;4164;49.844;8.830;2022-08-02T16:10:14;30.30;41.20
8248;DHT22;4164;49.844;8.830;2022-08-02T16:12:39;30.30;41.80
8248;DHT22;4164;49.844;8.830;2022-08-02T16:15:05;30.10;41.70
8248;DHT22;4164;49.844;8.830;2022-08-02T16:17:31;30.00;41.90
8248;DHT22;4164;49.844;8.830;2022-08-02T16:19:57;30.00;42.60
8248;DHT22;4164;49.844;8.830;2022-08-02T16:22:22;30.00;42.00
8248;DHT22;4164;49.844;8.830;2022-08-02T16:24:48;30.10;42.20
8248;DHT22;4164;49.844;8.830;2022-08-02T16:27:14;30.10;41.80
8248;DHT22;4164;49.844;8.830;2022-08-02T16:29:40;29.80;42.30
8248;DHT22;4164;49.844;8.830;2022-08-02T16:32:06;30.00;42.90
8248;DHT22;4164;49.844;8.830;2022-08-02T16:34:31;30.00;42.80
8248;DHT22;4164;49.844;8.830;2022-08-02T16:36:57;29.90;43.40
8248;DHT22;4164;49.844;8.830;2022-08-02T16:39:22;29.80;42.20
8248;DHT22;4164;49.844;8.830;2022-08-02T16:41:48;29.90;41.70